createdAt,value
2019-04-07T00:07:19.577Z,6.80
2019-04-07T00:10:01.932Z,6.70
2019-04-07T00:12:42.633Z,6.60
2019-04-07T00:15:24.209Z,6.60
2019-04-07T00:18:10.868Z,6.40
2019-04-07T00:20:54.023Z,6.40
2019-04-07T00:23:35.758Z,6.30
2019-04-07T00:26:17.168Z,6.20
2019-04-07T00:28:59.833Z,6.10
2019-04-07T00:31:41.886Z,6.00
2019-04-07T00:34:28.073Z,6.00
2019-04-07T00:37:09.807Z,5.90
2019-04-07T00:39:51.577Z,5.90
2019-04-07T00:42:33.726Z,5.80
2019-04-07T00:47:54.933Z,5.70
2019-04-07T00:50:37.142Z,5.70
2019-04-07T00:53:18.834Z,5.60
2019-04-07T00:56:00.457Z,5.60
2019-04-07T00:58:45.764Z,5.50
2019-04-07T01:01:27.718Z,5.40
2019-04-07T01:04:10.044Z,5.40
2019-04-07T01:06:51.476Z,5.40
2019-04-07T01:09:33.299Z,5.40
2019-04-07T01:12:15.939Z,5.30
2019-04-07T01:14:58.898Z,5.30
2019-04-07T01:17:40.242Z,5.20
2019-04-07T01:23:24.914Z,5.10
2019-04-07T01:26:06.413Z,5.00
2019-04-07T01:28:47.483Z,4.90
2019-04-07T01:31:28.860Z,4.90
2019-04-07T01:34:10.617Z,4.80
2019-04-07T01:36:51.961Z,4.80
2019-04-07T01:42:41.814Z,4.80
2019-04-07T01:51:21.205Z,4.80
2019-04-07T01:54:28.365Z,4.70
2019-04-07T02:00:18.334Z,4.70
2019-04-07T02:09:21.570Z,4.60
2019-04-07T02:12:06.969Z,4.60
2019-04-07T02:14:47.259Z,4.60
2019-04-07T02:17:48.403Z,4.60
2019-04-07T02:20:20.008Z,4.60
2019-04-07T02:23:24.070Z,4.60
2019-04-07T02:26:08.605Z,4.60
2019-04-07T02:28:53.779Z,4.60
2019-04-07T02:31:36.831Z,4.60
2019-04-07T02:34:22.973Z,4.60
2019-04-07T02:37:12.044Z,4.60
2019-04-07T02:39:55.076Z,4.60
2019-04-07T02:46:03.121Z,4.60
2019-04-07T02:51:31.866Z,4.60
2019-04-07T02:57:22.083Z,4.40
2019-04-07T03:00:24.467Z,4.30
2019-04-07T03:02:53.920Z,4.20
2019-04-07T03:05:40.379Z,4.20
2019-04-07T03:08:47.423Z,4.10
2019-04-07T03:14:37.248Z,4.00
2019-04-07T03:17:20.691Z,3.90
2019-04-07T03:20:03.323Z,3.80
2019-04-07T03:25:32.483Z,3.80
2019-04-07T03:31:56.715Z,3.70
2019-04-07T03:37:35.105Z,3.60
2019-04-07T03:42:51.411Z,3.50
2019-04-07T03:45:53.822Z,3.40
2019-04-07T03:48:24.541Z,3.40
2019-04-07T03:53:54.203Z,3.30
2019-04-07T03:59:54.448Z,3.30
2019-04-07T04:05:22.176Z,3.20
2019-04-07T04:08:06.060Z,3.20
2019-04-07T04:13:42.447Z,3.10
2019-04-07T04:16:25.779Z,3.10
2019-04-07T04:21:52.532Z,3.10
2019-04-07T04:27:52.942Z,3.10
2019-04-07T04:33:18.467Z,3.10
2019-04-07T04:36:00.526Z,3.00
2019-04-07T04:38:44.077Z,3.00
2019-04-07T04:41:27.268Z,3.00
2019-04-07T04:44:10.156Z,3.00
2019-04-07T04:46:53.028Z,3.00
2019-04-07T04:49:37.156Z,3.00
2019-04-07T04:52:20.564Z,2.90
2019-04-07T04:55:02.386Z,2.90
2019-04-07T04:57:44.452Z,2.90
2019-04-07T05:00:26.669Z,2.90
2019-04-07T05:03:08.247Z,2.90
2019-04-07T05:05:53.488Z,2.90
2019-04-07T05:14:31.022Z,3.20
2019-04-07T05:17:12.693Z,3.30
2019-04-07T05:25:47.989Z,3.70
2019-04-07T05:28:32.337Z,4.00
2019-04-07T05:34:01.943Z,4.40
2019-04-07T05:51:12.194Z,5.60
2019-04-07T05:53:53.930Z,5.70
2019-04-07T05:56:35.933Z,5.70
2019-04-07T05:59:21.048Z,5.80
2019-04-07T06:02:03.798Z,6.00
2019-04-07T06:04:46.844Z,6.20
2019-04-07T06:07:31.525Z,6.40
2019-04-07T06:10:13.340Z,6.50
2019-04-07T06:12:55.379Z,6.70
2019-04-07T06:15:38.139Z,6.80
2019-04-07T06:18:20.022Z,6.90
2019-04-07T06:21:01.581Z,7.00
2019-04-07T06:23:43.241Z,7.10
2019-04-07T06:26:25.525Z,7.30
2019-04-07T06:29:06.992Z,7.40
2019-04-07T06:31:48.298Z,7.60
2019-04-07T06:37:35.266Z,7.80
2019-04-07T06:40:20.412Z,8.00
2019-04-07T06:45:45.354Z,8.30
2019-04-07T06:48:30.520Z,8.40
2019-04-07T06:51:12.405Z,8.50
2019-04-07T06:56:47.028Z,8.80
2019-04-07T07:08:12.807Z,9.40
2019-04-07T07:13:44.525Z,9.60
2019-04-07T07:19:31.573Z,10.10
2019-04-07T07:22:15.879Z,10.20
2019-04-07T07:24:57.748Z,10.40
2019-04-07T07:27:39.701Z,10.60
2019-04-07T07:30:21.519Z,10.80
2019-04-07T07:35:49.331Z,11.00
2019-04-07T07:38:34.740Z,11.20
2019-04-07T07:41:14.090Z,11.40
2019-04-07T07:43:44.249Z,11.50
2019-04-07T07:46:13.171Z,11.70
2019-04-07T07:48:42.490Z,11.80
2019-04-07T07:51:13.293Z,11.90
2019-04-07T07:53:42.691Z,12.00
2019-04-07T07:56:13.170Z,12.10
2019-04-07T07:58:42.417Z,12.10
2019-04-07T08:01:13.842Z,12.20
2019-04-07T08:03:42.636Z,12.30
2019-04-07T08:06:11.852Z,12.40
2019-04-07T08:08:40.817Z,12.50
2019-04-07T08:11:10.026Z,12.70
2019-04-07T08:13:43.410Z,12.80
2019-04-07T08:16:09.914Z,12.90
2019-04-07T08:18:43.556Z,13.00
2019-04-07T08:21:12.424Z,13.10
2019-04-07T08:23:43.067Z,13.20
2019-04-07T08:26:11.729Z,13.30
2019-04-07T08:28:40.489Z,13.40
2019-04-07T08:31:09.869Z,13.50
2019-04-07T08:33:39.146Z,13.60
2019-04-07T08:36:12.206Z,13.70
2019-04-07T08:38:38.686Z,13.80
2019-04-07T08:41:11.459Z,13.90
2019-04-07T08:43:42.103Z,13.90
2019-04-07T08:46:12.133Z,13.90
2019-04-07T08:48:41.218Z,13.90
2019-04-07T08:51:10.103Z,14.00
2019-04-07T08:53:43.574Z,14.00
2019-04-07T08:56:11.988Z,14.10
2019-04-07T08:58:42.583Z,14.10
2019-04-07T09:01:12.161Z,14.20
2019-04-07T09:03:43.910Z,14.20
2019-04-07T09:06:13.844Z,14.20
2019-04-07T09:08:46.160Z,14.20
2019-04-07T09:11:21.625Z,14.20
2019-04-07T09:13:50.447Z,14.30
2019-04-07T09:16:24.640Z,14.40
2019-04-07T09:19:13.695Z,14.60
2019-04-07T09:21:49.471Z,14.80
2019-04-07T09:24:24.956Z,14.80
2019-04-07T09:26:58.909Z,14.90
2019-04-07T09:29:41.095Z,14.80
2019-04-07T09:32:16.874Z,14.90
2019-04-07T09:34:50.623Z,15.00
2019-04-07T09:37:28.477Z,14.90
2019-04-07T09:40:05.575Z,15.00
2019-04-07T09:42:51.974Z,15.00
2019-04-07T09:45:22.844Z,15.00
2019-04-07T09:47:58.825Z,15.00
2019-04-07T09:50:32.358Z,15.10
2019-04-07T09:53:18.513Z,15.30
2019-04-07T09:56:00.838Z,15.50
2019-04-07T09:58:47.336Z,15.60
2019-04-07T10:01:28.804Z,15.70
2019-04-07T10:04:07.693Z,15.80
2019-04-07T10:06:39.275Z,15.90
2019-04-07T10:09:25.604Z,16.10
2019-04-07T10:11:56.617Z,16.30
2019-04-07T10:14:27.223Z,16.50
2019-04-07T10:17:03.470Z,16.60
2019-04-07T10:19:48.968Z,16.50
2019-04-07T10:22:19.775Z,16.50
2019-04-07T10:24:52.370Z,16.30
2019-04-07T10:27:28.615Z,16.20
2019-04-07T10:30:11.051Z,16.20
2019-04-07T10:32:57.473Z,16.40
2019-04-07T10:35:36.642Z,16.50
2019-04-07T10:38:18.968Z,16.60
2019-04-07T10:40:49.211Z,16.50
2019-04-07T10:43:36.032Z,16.60
2019-04-07T10:46:06.775Z,16.60
2019-04-07T10:48:37.846Z,16.60
2019-04-07T10:51:25.231Z,16.70
2019-04-07T10:53:56.134Z,16.80
2019-04-07T10:56:26.589Z,16.90
2019-04-07T10:58:59.905Z,17.00
2019-04-07T11:01:33.388Z,17.10
2019-04-07T11:04:03.898Z,17.00
2019-04-07T11:06:34.053Z,17.00
2019-04-07T11:09:20.050Z,17.10
2019-04-07T11:11:56.617Z,17.30
2019-04-07T11:14:33.096Z,17.60
2019-04-07T11:17:10.039Z,17.80
2019-04-07T11:19:40.717Z,17.80
2019-04-07T11:22:12.861Z,17.80
2019-04-07T11:24:49.289Z,17.80
2019-04-07T11:27:20.119Z,17.70
2019-04-07T11:29:54.061Z,17.70
2019-04-07T11:32:30.486Z,17.70
2019-04-07T11:35:01.205Z,17.60
2019-04-07T11:37:32.768Z,17.60
2019-04-07T11:40:04.681Z,17.70
2019-04-07T11:42:35.173Z,17.80
2019-04-07T11:45:26.965Z,17.90
2019-04-07T11:47:59.959Z,18.10
2019-04-07T11:50:47.222Z,18.00
2019-04-07T11:53:21.230Z,17.90
2019-04-07T11:56:10.792Z,17.70
2019-04-07T11:58:49.815Z,17.50
2019-04-07T12:01:20.254Z,17.30
2019-04-07T12:04:07.870Z,17.30
2019-04-07T12:06:39.531Z,17.40
2019-04-07T12:09:17.485Z,17.60
2019-04-07T12:11:48.357Z,17.80
2019-04-07T12:14:24.500Z,17.80
2019-04-07T12:17:06.977Z,17.80
2019-04-07T12:19:35.668Z,17.80
2019-04-07T12:22:14.110Z,17.80
2019-04-07T12:24:45.494Z,17.80
2019-04-07T12:27:21.158Z,17.90
2019-04-07T12:29:50.557Z,18.00
2019-04-07T12:32:21.398Z,18.00
2019-04-07T12:34:54.741Z,18.00
2019-04-07T12:37:25.032Z,17.80
2019-04-07T12:40:07.587Z,17.50
2019-04-07T12:42:54.600Z,17.40
2019-04-07T12:45:25.456Z,17.30
2019-04-07T12:47:58.400Z,17.30
2019-04-07T12:50:49.007Z,17.20
2019-04-07T12:53:36.537Z,17.20
2019-04-07T12:56:23.218Z,17.20
2019-04-07T12:58:53.549Z,17.00
2019-04-07T13:01:27.043Z,16.70
2019-04-07T13:04:15.437Z,16.50
2019-04-07T13:06:49.085Z,16.70
2019-04-07T13:09:32.324Z,16.70
2019-04-07T13:12:22.927Z,16.70
2019-04-07T13:15:10.901Z,16.60
2019-04-07T13:17:58.095Z,16.60
2019-04-07T13:20:37.610Z,16.70
2019-04-07T13:23:11.176Z,16.80
2019-04-07T13:25:41.890Z,17.00
2019-04-07T13:28:12.193Z,17.10
2019-04-07T13:30:43.291Z,17.30
2019-04-07T13:33:20.533Z,17.30
2019-04-07T13:35:55.015Z,17.40
2019-04-07T13:38:28.324Z,17.50
2019-04-07T13:41:17.613Z,17.40
2019-04-07T13:43:59.363Z,17.20
2019-04-07T13:46:36.000Z,16.80
2019-04-07T13:49:05.407Z,16.50
2019-04-07T13:51:44.821Z,16.30
2019-04-07T13:54:16.530Z,16.40
2019-04-07T13:57:04.488Z,16.70
2019-04-07T13:59:34.892Z,16.80
2019-04-07T14:02:05.334Z,16.80
2019-04-07T14:04:36.034Z,16.80
2019-04-07T14:07:18.207Z,16.70
2019-04-07T14:10:05.261Z,16.50
2019-04-07T14:12:42.241Z,16.30
2019-04-07T14:15:17.064Z,16.20
2019-04-07T14:17:50.849Z,16.10
2019-04-07T14:20:25.711Z,16.00
2019-04-07T14:23:14.099Z,15.80
2019-04-07T14:26:01.301Z,15.70
2019-04-07T14:28:42.321Z,15.60
2019-04-07T14:31:16.442Z,15.60
2019-04-07T14:33:53.434Z,15.70
2019-04-07T14:36:37.234Z,16.20
2019-04-07T14:39:12.888Z,16.50
2019-04-07T14:42:06.004Z,16.60
2019-04-07T14:44:36.887Z,16.60
2019-04-07T14:47:16.167Z,16.90
2019-04-07T14:50:01.948Z,17.10
2019-04-07T14:52:44.741Z,16.90
2019-04-07T14:55:31.570Z,16.60
2019-04-07T14:58:16.067Z,16.50
2019-04-07T15:00:49.144Z,16.30
2019-04-07T15:03:17.866Z,16.10
2019-04-07T15:05:48.419Z,16.50
2019-04-07T15:08:18.779Z,16.90
2019-04-07T15:10:52.775Z,17.30
2019-04-07T15:13:27.970Z,17.60
2019-04-07T15:15:54.992Z,17.70
2019-04-07T15:18:24.077Z,17.70
2019-04-07T15:20:53.061Z,17.60
2019-04-07T15:23:21.899Z,17.30
2019-04-07T15:25:51.503Z,17.10
2019-04-07T15:28:20.286Z,17.00
2019-04-07T15:30:50.423Z,16.70
2019-04-07T15:33:19.519Z,16.50
2019-04-07T15:35:50.190Z,16.30
2019-04-07T15:38:20.566Z,16.20
2019-04-07T15:40:49.488Z,16.00
2019-04-07T15:43:19.062Z,16.00
2019-04-07T15:45:48.654Z,15.90
2019-04-07T15:48:17.762Z,15.90
2019-04-07T15:50:47.450Z,15.80
2019-04-07T15:53:16.647Z,15.80
2019-04-07T15:55:50.977Z,15.70
2019-04-07T15:58:15.731Z,15.70
2019-04-07T16:00:46.892Z,15.60
2019-04-07T16:03:16.965Z,15.60
2019-04-07T16:05:46.557Z,15.50
2019-04-07T16:08:16.117Z,15.50
2019-04-07T16:10:45.353Z,15.40
2019-04-07T16:13:14.124Z,15.40
2019-04-07T16:15:44.883Z,15.30
2019-04-07T16:18:13.014Z,15.20
2019-04-07T16:20:41.753Z,15.10
2019-04-07T16:23:10.627Z,15.00
2019-04-07T16:25:40.616Z,14.90
2019-04-07T16:28:13.260Z,14.80
2019-04-07T16:30:40.756Z,14.70
2019-04-07T16:33:09.987Z,14.70
2019-04-07T16:35:39.720Z,14.70
2019-04-07T16:38:10.010Z,14.70
2019-04-07T16:40:41.364Z,14.70
2019-04-07T16:43:14.600Z,14.70
2019-04-07T16:45:40.031Z,14.60
2019-04-07T16:48:09.047Z,14.60
2019-04-07T16:50:38.123Z,14.60
2019-04-07T16:53:08.045Z,14.50
2019-04-07T16:55:39.910Z,14.50
2019-04-07T16:58:09.646Z,14.50
2019-04-07T17:00:39.744Z,14.40
2019-04-07T17:03:09.861Z,14.40
2019-04-07T17:05:39.653Z,14.30
2019-04-07T17:08:08.675Z,14.20
2019-04-07T17:10:37.442Z,14.20
2019-04-07T17:13:17.860Z,14.10
2019-04-07T17:15:39.567Z,14.00
2019-04-07T17:18:10.440Z,13.90
2019-04-07T17:20:39.098Z,13.90
2019-04-07T17:23:07.879Z,13.80
2019-04-07T17:25:36.505Z,13.70
2019-04-07T17:28:06.427Z,13.60
2019-04-07T17:30:38.033Z,13.60
2019-04-07T17:33:06.587Z,13.60
2019-04-07T17:35:35.784Z,13.50
2019-04-07T17:38:07.002Z,13.40
2019-04-07T17:40:37.728Z,13.40
2019-04-07T17:43:13.902Z,13.40
2019-04-07T17:45:46.237Z,13.30
2019-04-07T17:48:17.111Z,13.30
2019-04-07T17:50:54.169Z,13.30
2019-04-07T17:53:28.575Z,13.30
2019-04-07T17:56:08.563Z,13.20
2019-04-07T17:58:45.746Z,13.10
2019-04-07T18:01:20.647Z,13.10
2019-04-07T18:04:03.710Z,13.00
2019-04-07T18:06:50.650Z,13.00
2019-04-07T18:09:24.749Z,13.00
2019-04-07T18:12:12.767Z,12.90
2019-04-07T18:14:42.631Z,12.90
2019-04-07T18:17:30.038Z,12.80
2019-04-07T18:20:06.458Z,12.80
2019-04-07T18:22:35.854Z,12.70
2019-04-07T18:25:11.071Z,12.60
2019-04-07T18:27:45.197Z,12.60
2019-04-07T18:30:14.727Z,12.50
2019-04-07T18:32:51.441Z,12.40
2019-04-07T18:35:34.672Z,12.30
2019-04-07T18:38:10.261Z,12.20
2019-04-07T18:40:52.696Z,12.00
2019-04-07T18:43:50.745Z,11.90
2019-04-07T18:46:16.937Z,11.70
2019-04-07T18:48:50.770Z,11.60
2019-04-07T18:51:29.657Z,11.50
2019-04-07T18:54:12.126Z,11.50
2019-04-07T18:56:42.910Z,11.40
2019-04-07T18:59:13.346Z,11.40
2019-04-07T19:01:46.930Z,11.40
2019-04-07T19:04:28.388Z,11.40
2019-04-07T19:07:04.249Z,11.30
2019-04-07T19:09:35.665Z,11.30
2019-04-07T19:12:14.146Z,11.30
2019-04-07T19:14:48.125Z,11.30
2019-04-07T19:17:34.846Z,11.20
2019-04-07T19:20:06.298Z,11.30
2019-04-07T19:22:39.950Z,11.20
2019-04-07T19:25:17.186Z,11.20
2019-04-07T19:27:50.460Z,11.20
2019-04-07T19:30:29.524Z,11.10
2019-04-07T19:33:09.085Z,11.10
2019-04-07T19:35:41.857Z,11.00
2019-04-07T19:38:29.784Z,11.00
2019-04-07T19:41:00.390Z,10.90
2019-04-07T19:43:37.129Z,10.80
2019-04-07T19:46:10.436Z,10.80
2019-04-07T19:48:52.458Z,10.70
2019-04-07T19:51:41.646Z,10.60
2019-04-07T19:54:16.098Z,10.50
2019-04-07T19:56:43.773Z,10.30
2019-04-07T19:59:15.351Z,10.20
2019-04-07T20:01:45.692Z,10.10
2019-04-07T20:04:28.461Z,10.00
2019-04-07T20:07:00.815Z,9.90
2019-04-07T20:09:34.187Z,9.80
2019-04-07T20:12:13.194Z,9.70
2019-04-07T20:14:49.182Z,9.70
2019-04-07T20:17:24.454Z,9.70
2019-04-07T20:20:04.229Z,9.60
2019-04-07T20:22:41.399Z,9.60
2019-04-07T20:25:15.942Z,9.60
2019-04-07T20:27:56.054Z,9.50
2019-04-07T20:30:30.870Z,9.50
2019-04-07T20:33:16.340Z,9.50
2019-04-07T20:36:08.700Z,9.50
2019-04-07T20:38:58.444Z,9.50
2019-04-07T20:41:37.998Z,9.50
2019-04-07T20:44:19.745Z,9.50
2019-04-07T20:46:53.666Z,9.50
2019-04-07T20:49:41.830Z,9.40
2019-04-07T20:52:17.638Z,9.40
2019-04-07T20:54:54.392Z,9.30
2019-04-07T20:57:36.540Z,9.20
2019-04-07T21:00:23.753Z,9.20
2019-04-07T21:03:14.138Z,9.10
2019-04-07T21:05:31.422Z,9.00
2019-04-07T21:08:01.695Z,8.90
2019-04-07T21:10:36.004Z,8.80
2019-04-07T21:13:13.619Z,8.60
2019-04-07T21:15:43.995Z,8.60
2019-04-07T21:18:14.732Z,8.50
2019-04-07T21:20:50.977Z,8.40
2019-04-07T21:23:27.399Z,8.30
2019-04-07T21:26:03.659Z,8.20
2019-04-07T21:28:45.462Z,8.20
2019-04-07T21:31:21.823Z,8.10
2019-04-07T21:33:53.222Z,8.10
2019-04-07T21:36:30.781Z,8.10
2019-04-07T21:39:16.218Z,8.00
2019-04-07T21:42:01.786Z,8.00
2019-04-07T21:44:35.763Z,8.10
2019-04-07T21:47:18.218Z,8.10
2019-04-07T21:50:09.693Z,8.10
2019-04-07T21:52:41.470Z,8.20
2019-04-07T21:55:26.516Z,8.20
2019-04-07T21:57:57.528Z,8.10
2019-04-07T22:00:34.902Z,8.10
2019-04-07T22:03:23.285Z,8.10
2019-04-07T22:05:58.011Z,8.00
2019-04-07T22:08:42.131Z,8.00
2019-04-07T22:11:09.850Z,7.90
2019-04-07T22:13:38.715Z,7.80
2019-04-07T22:16:08.013Z,7.80
2019-04-07T22:18:39.089Z,7.80
2019-04-07T22:21:07.641Z,7.70
2019-04-07T22:23:36.366Z,7.60
2019-04-07T22:26:09.418Z,7.50
2019-04-07T22:28:35.246Z,7.50
2019-04-07T22:31:04.038Z,7.30
2019-04-07T22:33:33.732Z,7.30
2019-04-07T22:36:03.816Z,7.20
2019-04-07T22:38:33.561Z,7.10
2019-04-07T22:41:02.741Z,7.10
2019-04-07T22:43:31.847Z,7.00
2019-04-07T22:46:08.733Z,6.90
2019-04-07T22:48:31.030Z,6.80
2019-04-07T22:50:59.630Z,6.80
2019-04-07T22:53:31.190Z,6.80
2019-04-07T22:55:59.184Z,6.80
2019-04-07T22:58:27.910Z,6.70
2019-04-07T23:00:56.611Z,6.50
2019-04-07T23:03:26.055Z,6.40
2019-04-07T23:05:55.500Z,6.40
2019-04-07T23:08:24.366Z,6.30
2019-04-07T23:10:53.059Z,6.20
2019-04-07T23:13:21.785Z,6.20
2019-04-07T23:15:50.466Z,6.20
2019-04-07T23:18:20.728Z,6.10
2019-04-07T23:20:49.573Z,6.10
2019-04-07T23:23:18.320Z,6.10
2019-04-07T23:25:46.836Z,6.00
2019-04-07T23:28:15.530Z,6.00
2019-04-07T23:30:45.101Z,6.00
2019-04-07T23:33:14.650Z,6.00
2019-04-07T23:35:43.431Z,6.00
2019-04-07T23:38:12.013Z,5.90
2019-04-07T23:40:40.632Z,5.90
2019-04-07T23:43:09.315Z,5.80
2019-04-07T23:45:38.030Z,5.70
2019-04-07T23:48:06.995Z,5.70
2019-04-07T23:50:35.847Z,5.70
2019-04-07T23:53:38.771Z,5.70
2019-04-07T23:56:07.945Z,5.60
2019-04-07T23:58:36.596Z,5.50
